sensor_id;sensor_type;location;lat;lon;timestamp;P1;durP1;ratioP1;P2;durP2;ratioP2
44536;SDS011;30245;51.966;6.292;2022-11-20T00:00:47;11.33;;;6.03;;
44536;SDS011;30245;51.966;6.292;2022-11-20T00:03:13;8.07;;;5.23;;
44536;SDS011;30245;51.966;6.292;2022-11-20T00:05:38;10.40;;;5.37;;
44536;SDS011;30245;51.966;6.292;2022-11-20T00:08:04;7.00;;;4.93;;
44536;SDS011;30245;51.966;6.292;2022-11-20T00:10:30;9.30;;;5.07;;
44536;SDS011;30245;51.966;6.292;2022-11-20T00:12:55;12.13;;;6.50;;
44536;SDS011;30245;51.966;6.292;2022-11-20T00:15:22;7.93;;;5.43;;
44536;SDS011;30245;51.966;6.292;2022-11-20T00:17:48;7.30;;;4.43;;
44536;SDS011;30245;51.966;6.292;2022-11-20T00:20:14;9.20;;;4.87;;
44536;SDS011;30245;51.966;6.292;2022-11-20T00:22:39;9.30;;;4.90;;
44536;SDS011;30245;51.966;6.292;2022-11-20T00:25:05;7.47;;;4.73;;
44536;SDS011;30245;51.966;6.292;2022-11-20T00:27:31;9.07;;;4.97;;
44536;SDS011;30245;51.966;6.292;2022-11-20T00:29:56;8.37;;;4.50;;
44536;SDS011;30245;51.966;6.292;2022-11-20T00:32:22;7.67;;;5.30;;
44536;SDS011;30245;51.966;6.292;2022-11-20T00:34:47;7.87;;;5.47;;
44536;SDS011;30245;51.966;6.292;2022-11-20T00:37:13;6.33;;;4.37;;
44536;SDS011;30245;51.966;6.292;2022-11-20T00:39:38;6.73;;;4.33;;
44536;SDS011;30245;51.966;6.292;2022-11-20T00:42:04;7.37;;;4.87;;
44536;SDS011;30245;51.966;6.292;2022-11-20T00:44:29;8.67;;;5.60;;
44536;SDS011;30245;51.966;6.292;2022-11-20T00:46:55;7.13;;;4.33;;
44536;SDS011;30245;51.966;6.292;2022-11-20T00:49:20;5.40;;;3.73;;
44536;SDS011;30245;51.966;6.292;2022-11-20T00:51:52;9.90;;;5.70;;
44536;SDS011;30245;51.966;6.292;2022-11-20T00:54:18;9.13;;;4.57;;
44536;SDS011;30245;51.966;6.292;2022-11-20T00:56:43;10.07;;;5.30;;
44536;SDS011;30245;51.966;6.292;2022-11-20T00:59:09;9.23;;;5.90;;
44536;SDS011;30245;51.966;6.292;2022-11-20T01:01:35;10.33;;;5.43;;
44536;SDS011;30245;51.966;6.292;2022-11-20T01:04:02;8.73;;;5.60;;
44536;SDS011;30245;51.966;6.292;2022-11-20T01:06:34;7.97;;;5.40;;
44536;SDS011;30245;51.966;6.292;2022-11-20T01:09:12;9.40;;;5.60;;
44536;SDS011;30245;51.966;6.292;2022-11-20T01:11:40;9.93;;;5.33;;
44536;SDS011;30245;51.966;6.292;2022-11-20T01:14:10;10.43;;;4.78;;
44536;SDS011;30245;51.966;6.292;2022-11-20T01:16:41;8.47;;;5.23;;
44536;SDS011;30245;51.966;6.292;2022-11-20T01:19:10;9.02;;;5.43;;
44536;SDS011;30245;51.966;6.292;2022-11-20T01:21:39;7.13;;;4.33;;
44536;SDS011;30245;51.966;6.292;2022-11-20T01:24:07;7.68;;;5.00;;
44536;SDS011;30245;51.966;6.292;2022-11-20T01:29:02;8.53;;;5.17;;
44536;SDS011;30245;51.966;6.292;2022-11-20T01:31:30;7.80;;;4.40;;
44536;SDS011;30245;51.966;6.292;2022-11-20T01:34:06;7.60;;;5.20;;
44536;SDS011;30245;51.966;6.292;2022-11-20T01:36:34;8.03;;;5.03;;
44536;SDS011;30245;51.966;6.292;2022-11-20T01:39:04;9.13;;;4.53;;
44536;SDS011;30245;51.966;6.292;2022-11-20T01:41:31;9.80;;;4.80;;
44536;SDS011;30245;51.966;6.292;2022-11-20T01:44:18;7.47;;;5.10;;
44536;SDS011;30245;51.966;6.292;2022-11-20T01:46:55;9.03;;;4.80;;
44536;SDS011;30245;51.966;6.292;2022-11-20T01:52:17;9.73;;;5.57;;
44536;SDS011;30245;51.966;6.292;2022-11-20T01:55:07;7.83;;;4.93;;
44536;SDS011;30245;51.966;6.292;2022-11-20T01:57:53;7.17;;;5.33;;
44536;SDS011;30245;51.966;6.292;2022-11-20T02:00:19;9.63;;;6.07;;
44536;SDS011;30245;51.966;6.292;2022-11-20T02:02:56;11.57;;;5.17;;
44536;SDS011;30245;51.966;6.292;2022-11-20T02:05:27;11.40;;;6.45;;
44536;SDS011;30245;51.966;6.292;2022-11-20T02:08:00;8.17;;;5.67;;
44536;SDS011;30245;51.966;6.292;2022-11-20T02:10:27;9.07;;;4.70;;
44536;SDS011;30245;51.966;6.292;2022-11-20T02:12:54;8.03;;;4.97;;
44536;SDS011;30245;51.966;6.292;2022-11-20T02:15:38;9.33;;;5.87;;
44536;SDS011;30245;51.966;6.292;2022-11-20T02:18:05;13.27;;;6.00;;
44536;SDS011;30245;51.966;6.292;2022-11-20T02:20:31;8.83;;;5.37;;
44536;SDS011;30245;51.966;6.292;2022-11-20T02:22:57;9.00;;;5.67;;
44536;SDS011;30245;51.966;6.292;2022-11-20T02:25:28;15.93;;;7.67;;
44536;SDS011;30245;51.966;6.292;2022-11-20T02:27:55;10.10;;;7.07;;
44536;SDS011;30245;51.966;6.292;2022-11-20T02:30:21;7.13;;;5.23;;
44536;SDS011;30245;51.966;6.292;2022-11-20T02:32:47;7.97;;;5.10;;
44536;SDS011;30245;51.966;6.292;2022-11-20T02:37:44;12.40;;;6.27;;
44536;SDS011;30245;51.966;6.292;2022-11-20T02:40:13;12.18;;;5.80;;
44536;SDS011;30245;51.966;6.292;2022-11-20T02:42:39;11.40;;;6.43;;
44536;SDS011;30245;51.966;6.292;2022-11-20T02:45:05;9.77;;;5.20;;
44536;SDS011;30245;51.966;6.292;2022-11-20T02:47:31;8.17;;;5.13;;
44536;SDS011;30245;51.966;6.292;2022-11-20T02:49:56;9.67;;;4.67;;
44536;SDS011;30245;51.966;6.292;2022-11-20T02:52:22;8.40;;;5.17;;
44536;SDS011;30245;51.966;6.292;2022-11-20T02:54:48;6.60;;;5.17;;
44536;SDS011;30245;51.966;6.292;2022-11-20T02:57:13;9.07;;;4.33;;
44536;SDS011;30245;51.966;6.292;2022-11-20T02:59:39;9.50;;;5.43;;
44536;SDS011;30245;51.966;6.292;2022-11-20T03:02:04;10.20;;;5.33;;
44536;SDS011;30245;51.966;6.292;2022-11-20T03:04:30;6.03;;;4.03;;
44536;SDS011;30245;51.966;6.292;2022-11-20T03:06:56;7.03;;;4.77;;
44536;SDS011;30245;51.966;6.292;2022-11-20T03:09:21;9.90;;;6.20;;
44536;SDS011;30245;51.966;6.292;2022-11-20T03:11:47;8.00;;;4.97;;
44536;SDS011;30245;51.966;6.292;2022-11-20T03:14:12;7.43;;;4.10;;
44536;SDS011;30245;51.966;6.292;2022-11-20T03:16:39;9.43;;;5.63;;
44536;SDS011;30245;51.966;6.292;2022-11-20T03:19:04;9.30;;;4.47;;
44536;SDS011;30245;51.966;6.292;2022-11-20T03:21:30;7.17;;;4.60;;
44536;SDS011;30245;51.966;6.292;2022-11-20T03:23:57;8.60;;;4.50;;
44536;SDS011;30245;51.966;6.292;2022-11-20T03:26:24;10.10;;;6.10;;
44536;SDS011;30245;51.966;6.292;2022-11-20T03:28:57;9.23;;;4.37;;
44536;SDS011;30245;51.966;6.292;2022-11-20T03:31:28;7.53;;;5.27;;
44536;SDS011;30245;51.966;6.292;2022-11-20T03:33:58;8.07;;;5.70;;
44536;SDS011;30245;51.966;6.292;2022-11-20T03:36:25;8.60;;;4.23;;
44536;SDS011;30245;51.966;6.292;2022-11-20T03:38:52;11.03;;;7.17;;
44536;SDS011;30245;51.966;6.292;2022-11-20T03:41:23;8.67;;;5.43;;
44536;SDS011;30245;51.966;6.292;2022-11-20T03:43:54;8.97;;;5.40;;
44536;SDS011;30245;51.966;6.292;2022-11-20T03:46:24;13.33;;;6.53;;
44536;SDS011;30245;51.966;6.292;2022-11-20T03:48:50;8.03;;;5.27;;
44536;SDS011;30245;51.966;6.292;2022-11-20T03:51:20;8.83;;;4.73;;
44536;SDS011;30245;51.966;6.292;2022-11-20T03:53:48;7.47;;;4.30;;
44536;SDS011;30245;51.966;6.292;2022-11-20T03:56:15;8.33;;;5.37;;
44536;SDS011;30245;51.966;6.292;2022-11-20T03:58:42;9.73;;;5.67;;
44536;SDS011;30245;51.966;6.292;2022-11-20T04:01:09;8.10;;;4.47;;
44536;SDS011;30245;51.966;6.292;2022-11-20T04:03:46;8.05;;;4.47;;
44536;SDS011;30245;51.966;6.292;2022-11-20T04:06:14;7.00;;;5.00;;
44536;SDS011;30245;51.966;6.292;2022-11-20T04:08:43;10.87;;;5.20;;
44536;SDS011;30245;51.966;6.292;2022-11-20T04:11:16;9.37;;;4.83;;
44536;SDS011;30245;51.966;6.292;2022-11-20T04:13:46;8.43;;;5.03;;
44536;SDS011;30245;51.966;6.292;2022-11-20T04:16:13;10.47;;;5.57;;
44536;SDS011;30245;51.966;6.292;2022-11-20T04:18:40;7.03;;;4.47;;
44536;SDS011;30245;51.966;6.292;2022-11-20T04:21:06;8.77;;;4.90;;
44536;SDS011;30245;51.966;6.292;2022-11-20T04:23:32;8.10;;;5.47;;
44536;SDS011;30245;51.966;6.292;2022-11-20T04:26:02;9.43;;;5.20;;
44536;SDS011;30245;51.966;6.292;2022-11-20T04:28:37;7.47;;;4.30;;
44536;SDS011;30245;51.966;6.292;2022-11-20T04:31:07;7.40;;;4.90;;
44536;SDS011;30245;51.966;6.292;2022-11-20T04:33:35;7.93;;;5.53;;
44536;SDS011;30245;51.966;6.292;2022-11-20T04:36:10;9.30;;;4.97;;
44536;SDS011;30245;51.966;6.292;2022-11-20T04:38:40;8.48;;;3.90;;
44536;SDS011;30245;51.966;6.292;2022-11-20T04:41:07;12.93;;;5.50;;
44536;SDS011;30245;51.966;6.292;2022-11-20T04:43:33;7.70;;;5.90;;
44536;SDS011;30245;51.966;6.292;2022-11-20T04:45:59;9.83;;;6.07;;
44536;SDS011;30245;51.966;6.292;2022-11-20T04:48:25;6.60;;;4.20;;
44536;SDS011;30245;51.966;6.292;2022-11-20T04:50:52;6.97;;;4.63;;
44536;SDS011;30245;51.966;6.292;2022-11-20T04:53:18;6.10;;;4.73;;
44536;SDS011;30245;51.966;6.292;2022-11-20T04:55:45;7.77;;;4.70;;
44536;SDS011;30245;51.966;6.292;2022-11-20T04:58:11;7.97;;;5.20;;
44536;SDS011;30245;51.966;6.292;2022-11-20T05:00:37;7.47;;;4.57;;
44536;SDS011;30245;51.966;6.292;2022-11-20T05:03:02;9.63;;;5.03;;
44536;SDS011;30245;51.966;6.292;2022-11-20T05:05:28;5.40;;;4.33;;
44536;SDS011;30245;51.966;6.292;2022-11-20T05:07:55;9.53;;;5.40;;
44536;SDS011;30245;51.966;6.292;2022-11-20T05:10:22;7.35;;;5.85;;
44536;SDS011;30245;51.966;6.292;2022-11-20T05:12:48;8.57;;;5.00;;
44536;SDS011;30245;51.966;6.292;2022-11-20T05:15:14;7.03;;;5.70;;
44536;SDS011;30245;51.966;6.292;2022-11-20T05:17:40;10.57;;;5.17;;
44536;SDS011;30245;51.966;6.292;2022-11-20T05:20:05;7.57;;;5.07;;
44536;SDS011;30245;51.966;6.292;2022-11-20T05:22:31;6.97;;;3.87;;
44536;SDS011;30245;51.966;6.292;2022-11-20T05:24:57;9.63;;;6.73;;
44536;SDS011;30245;51.966;6.292;2022-11-20T05:27:22;7.17;;;3.87;;
44536;SDS011;30245;51.966;6.292;2022-11-20T05:29:48;6.13;;;5.30;;
44536;SDS011;30245;51.966;6.292;2022-11-20T05:32:14;6.87;;;5.43;;
44536;SDS011;30245;51.966;6.292;2022-11-20T05:34:39;9.53;;;4.83;;
44536;SDS011;30245;51.966;6.292;2022-11-20T05:37:05;9.20;;;5.87;;
44536;SDS011;30245;51.966;6.292;2022-11-20T05:39:30;6.93;;;4.70;;
44536;SDS011;30245;51.966;6.292;2022-11-20T05:41:56;7.97;;;5.47;;
44536;SDS011;30245;51.966;6.292;2022-11-20T05:44:40;6.80;;;4.77;;
44536;SDS011;30245;51.966;6.292;2022-11-20T05:47:05;6.83;;;4.77;;
44536;SDS011;30245;51.966;6.292;2022-11-20T05:49:31;7.17;;;4.70;;
44536;SDS011;30245;51.966;6.292;2022-11-20T05:51:57;8.73;;;4.80;;
44536;SDS011;30245;51.966;6.292;2022-11-20T05:54:23;9.73;;;5.83;;
44536;SDS011;30245;51.966;6.292;2022-11-20T05:56:48;11.37;;;5.57;;
44536;SDS011;30245;51.966;6.292;2022-11-20T05:59:14;10.57;;;5.87;;
44536;SDS011;30245;51.966;6.292;2022-11-20T06:01:40;8.53;;;5.67;;
44536;SDS011;30245;51.966;6.292;2022-11-20T06:04:05;8.97;;;5.90;;
44536;SDS011;30245;51.966;6.292;2022-11-20T06:06:31;10.73;;;6.23;;
44536;SDS011;30245;51.966;6.292;2022-11-20T06:08:57;8.73;;;5.00;;
44536;SDS011;30245;51.966;6.292;2022-11-20T06:11:24;10.10;;;5.43;;
44536;SDS011;30245;51.966;6.292;2022-11-20T06:13:50;6.07;;;5.17;;
44536;SDS011;30245;51.966;6.292;2022-11-20T06:16:16;8.83;;;4.90;;
44536;SDS011;30245;51.966;6.292;2022-11-20T06:18:43;8.10;;;4.87;;
44536;SDS011;30245;51.966;6.292;2022-11-20T06:21:11;9.37;;;5.10;;
44536;SDS011;30245;51.966;6.292;2022-11-20T06:23:41;8.50;;;5.63;;
44536;SDS011;30245;51.966;6.292;2022-11-20T06:26:10;7.93;;;5.53;;
44536;SDS011;30245;51.966;6.292;2022-11-20T06:28:40;8.97;;;4.77;;
44536;SDS011;30245;51.966;6.292;2022-11-20T06:31:06;9.07;;;6.27;;
44536;SDS011;30245;51.966;6.292;2022-11-20T06:33:34;9.32;;;6.13;;
44536;SDS011;30245;51.966;6.292;2022-11-20T06:36:00;10.17;;;7.13;;
44536;SDS011;30245;51.966;6.292;2022-11-20T06:38:27;9.77;;;5.77;;
44536;SDS011;30245;51.966;6.292;2022-11-20T06:40:53;9.67;;;5.83;;
44536;SDS011;30245;51.966;6.292;2022-11-20T06:43:25;7.37;;;6.00;;
44536;SDS011;30245;51.966;6.292;2022-11-20T06:45:52;11.27;;;6.40;;
44536;SDS011;30245;51.966;6.292;2022-11-20T06:48:18;9.40;;;5.53;;
44536;SDS011;30245;51.966;6.292;2022-11-20T06:50:43;6.57;;;4.50;;
44536;SDS011;30245;51.966;6.292;2022-11-20T06:53:09;10.60;;;6.40;;
44536;SDS011;30245;51.966;6.292;2022-11-20T06:55:34;7.80;;;5.17;;
44536;SDS011;30245;51.966;6.292;2022-11-20T06:58:00;8.10;;;5.37;;
44536;SDS011;30245;51.966;6.292;2022-11-20T07:00:26;9.07;;;4.80;;
44536;SDS011;30245;51.966;6.292;2022-11-20T07:02:51;10.77;;;6.23;;
44536;SDS011;30245;51.966;6.292;2022-11-20T07:05:17;7.00;;;4.63;;
44536;SDS011;30245;51.966;6.292;2022-11-20T07:07:42;9.07;;;5.87;;
44536;SDS011;30245;51.966;6.292;2022-11-20T07:10:08;11.93;;;5.97;;
44536;SDS011;30245;51.966;6.292;2022-11-20T07:12:35;12.47;;;7.17;;
44536;SDS011;30245;51.966;6.292;2022-11-20T07:15:01;6.23;;;5.17;;
44536;SDS011;30245;51.966;6.292;2022-11-20T07:17:27;8.53;;;5.47;;
44536;SDS011;30245;51.966;6.292;2022-11-20T07:19:53;9.53;;;5.47;;
44536;SDS011;30245;51.966;6.292;2022-11-20T07:22:18;9.57;;;6.80;;
44536;SDS011;30245;51.966;6.292;2022-11-20T07:24:46;9.90;;;6.05;;
44536;SDS011;30245;51.966;6.292;2022-11-20T07:27:12;7.90;;;5.23;;
44536;SDS011;30245;51.966;6.292;2022-11-20T07:29:37;9.90;;;6.07;;
44536;SDS011;30245;51.966;6.292;2022-11-20T07:32:03;10.50;;;5.67;;
44536;SDS011;30245;51.966;6.292;2022-11-20T07:34:29;8.47;;;5.27;;
44536;SDS011;30245;51.966;6.292;2022-11-20T07:36:54;13.53;;;6.17;;
44536;SDS011;30245;51.966;6.292;2022-11-20T07:39:20;9.67;;;6.00;;
44536;SDS011;30245;51.966;6.292;2022-11-20T07:41:45;11.50;;;6.67;;
44536;SDS011;30245;51.966;6.292;2022-11-20T07:44:11;9.20;;;6.13;;
44536;SDS011;30245;51.966;6.292;2022-11-20T07:46:37;12.23;;;7.00;;
44536;SDS011;30245;51.966;6.292;2022-11-20T07:49:03;10.70;;;7.50;;
44536;SDS011;30245;51.966;6.292;2022-11-20T07:51:28;10.53;;;6.73;;
44536;SDS011;30245;51.966;6.292;2022-11-20T07:53:54;12.50;;;7.37;;
44536;SDS011;30245;51.966;6.292;2022-11-20T07:56:19;10.67;;;6.73;;
44536;SDS011;30245;51.966;6.292;2022-11-20T07:58:45;12.60;;;7.97;;
44536;SDS011;30245;51.966;6.292;2022-11-20T08:01:11;13.70;;;8.33;;
44536;SDS011;30245;51.966;6.292;2022-11-20T08:03:36;13.20;;;7.90;;
44536;SDS011;30245;51.966;6.292;2022-11-20T08:06:05;13.98;;;8.48;;
44536;SDS011;30245;51.966;6.292;2022-11-20T08:08:30;13.63;;;8.07;;
44536;SDS011;30245;51.966;6.292;2022-11-20T08:10:56;13.93;;;8.90;;
44536;SDS011;30245;51.966;6.292;2022-11-20T08:13:42;10.20;;;7.80;;
44536;SDS011;30245;51.966;6.292;2022-11-20T08:16:29;16.97;;;9.30;;
44536;SDS011;30245;51.966;6.292;2022-11-20T08:18:55;11.50;;;8.70;;
44536;SDS011;30245;51.966;6.292;2022-11-20T08:21:21;11.40;;;8.07;;
44536;SDS011;30245;51.966;6.292;2022-11-20T08:23:46;16.30;;;9.00;;
44536;SDS011;30245;51.966;6.292;2022-11-20T08:26:12;12.93;;;9.20;;
44536;SDS011;30245;51.966;6.292;2022-11-20T08:28:38;15.60;;;10.23;;
44536;SDS011;30245;51.966;6.292;2022-11-20T08:31:03;12.10;;;8.40;;
44536;SDS011;30245;51.966;6.292;2022-11-20T08:33:29;10.03;;;8.20;;
44536;SDS011;30245;51.966;6.292;2022-11-20T08:36:01;12.57;;;7.47;;
44536;SDS011;30245;51.966;6.292;2022-11-20T08:38:28;10.73;;;9.00;;
44536;SDS011;30245;51.966;6.292;2022-11-20T08:40:57;11.00;;;8.40;;
44536;SDS011;30245;51.966;6.292;2022-11-20T08:43:46;10.70;;;8.17;;
44536;SDS011;30245;51.966;6.292;2022-11-20T08:46:11;12.43;;;9.87;;
44536;SDS011;30245;51.966;6.292;2022-11-20T08:48:37;13.03;;;10.10;;
44536;SDS011;30245;51.966;6.292;2022-11-20T08:51:03;14.37;;;10.20;;
44536;SDS011;30245;51.966;6.292;2022-11-20T08:53:28;15.63;;;11.20;;
44536;SDS011;30245;51.966;6.292;2022-11-20T08:55:54;12.43;;;10.97;;
44536;SDS011;30245;51.966;6.292;2022-11-20T08:58:25;14.47;;;11.90;;
44536;SDS011;30245;51.966;6.292;2022-11-20T09:00:51;14.53;;;11.23;;
44536;SDS011;30245;51.966;6.292;2022-11-20T09:03:16;11.97;;;9.77;;
44536;SDS011;30245;51.966;6.292;2022-11-20T09:05:42;14.70;;;10.47;;
44536;SDS011;30245;51.966;6.292;2022-11-20T09:08:08;14.40;;;12.07;;
44536;SDS011;30245;51.966;6.292;2022-11-20T09:10:33;12.43;;;11.00;;
44536;SDS011;30245;51.966;6.292;2022-11-20T09:12:59;11.77;;;10.30;;
44536;SDS011;30245;51.966;6.292;2022-11-20T09:15:25;14.53;;;10.47;;
44536;SDS011;30245;51.966;6.292;2022-11-20T09:17:54;13.33;;;11.33;;
44536;SDS011;30245;51.966;6.292;2022-11-20T09:20:21;15.10;;;9.87;;
44536;SDS011;30245;51.966;6.292;2022-11-20T09:22:47;11.53;;;9.87;;
44536;SDS011;30245;51.966;6.292;2022-11-20T09:25:12;15.37;;;11.73;;
44536;SDS011;30245;51.966;6.292;2022-11-20T09:27:38;12.63;;;9.97;;
44536;SDS011;30245;51.966;6.292;2022-11-20T09:30:04;21.57;;;10.47;;
44536;SDS011;30245;51.966;6.292;2022-11-20T09:32:30;12.50;;;10.17;;
44536;SDS011;30245;51.966;6.292;2022-11-20T09:34:55;14.90;;;11.20;;
44536;SDS011;30245;51.966;6.292;2022-11-20T09:37:21;15.57;;;11.30;;
44536;SDS011;30245;51.966;6.292;2022-11-20T09:39:46;11.73;;;9.10;;
44536;SDS011;30245;51.966;6.292;2022-11-20T09:51:28;15.37;;;11.70;;
44536;SDS011;30245;51.966;6.292;2022-11-20T09:54:20;14.80;;;11.57;;
44536;SDS011;30245;51.966;6.292;2022-11-20T09:56:53;12.97;;;10.27;;
44536;SDS011;30245;51.966;6.292;2022-11-20T09:59:42;12.20;;;10.23;;
44536;SDS011;30245;51.966;6.292;2022-11-20T10:04:53;14.70;;;11.57;;
44536;SDS011;30245;51.966;6.292;2022-11-20T10:07:30;12.93;;;10.93;;
44536;SDS011;30245;51.966;6.292;2022-11-20T10:10:15;12.70;;;9.53;;
44536;SDS011;30245;51.966;6.292;2022-11-20T10:13:10;18.30;;;12.47;;
44536;SDS011;30245;51.966;6.292;2022-11-20T10:15:43;15.00;;;10.60;;
44536;SDS011;30245;51.966;6.292;2022-11-20T10:18:49;14.87;;;10.87;;
44536;SDS011;30245;51.966;6.292;2022-11-20T10:21:38;15.07;;;11.87;;
44536;SDS011;30245;51.966;6.292;2022-11-20T10:30:10;16.20;;;10.03;;
44536;SDS011;30245;51.966;6.292;2022-11-20T10:32:39;12.67;;;8.83;;
44536;SDS011;30245;51.966;6.292;2022-11-20T10:37:41;16.05;;;11.82;;
44536;SDS011;30245;51.966;6.292;2022-11-20T10:43:11;17.83;;;11.57;;
44536;SDS011;30245;51.966;6.292;2022-11-20T10:48:34;19.50;;;12.60;;
44536;SDS011;30245;51.966;6.292;2022-11-20T11:01:51;16.07;;;10.90;;
44536;SDS011;30245;51.966;6.292;2022-11-20T11:04:33;17.30;;;10.97;;
44536;SDS011;30245;51.966;6.292;2022-11-20T11:07:10;16.50;;;10.70;;
44536;SDS011;30245;51.966;6.292;2022-11-20T11:09:43;15.30;;;10.57;;
44536;SDS011;30245;51.966;6.292;2022-11-20T11:12:13;15.03;;;11.63;;
44536;SDS011;30245;51.966;6.292;2022-11-20T11:14:42;14.10;;;10.80;;
44536;SDS011;30245;51.966;6.292;2022-11-20T11:17:26;16.17;;;11.13;;
44536;SDS011;30245;51.966;6.292;2022-11-20T11:19:58;14.23;;;11.13;;
44536;SDS011;30245;51.966;6.292;2022-11-20T11:22:32;13.10;;;10.37;;
44536;SDS011;30245;51.966;6.292;2022-11-20T11:25:00;17.13;;;10.48;;
44536;SDS011;30245;51.966;6.292;2022-11-20T11:27:26;17.67;;;11.80;;
44536;SDS011;30245;51.966;6.292;2022-11-20T11:30:01;14.80;;;11.03;;
44536;SDS011;30245;51.966;6.292;2022-11-20T11:32:36;13.00;;;9.50;;
44536;SDS011;30245;51.966;6.292;2022-11-20T11:35:02;14.80;;;10.23;;
44536;SDS011;30245;51.966;6.292;2022-11-20T11:37:36;11.50;;;9.47;;
44536;SDS011;30245;51.966;6.292;2022-11-20T11:40:03;16.70;;;10.57;;
44536;SDS011;30245;51.966;6.292;2022-11-20T11:42:31;19.95;;;12.02;;
44536;SDS011;30245;51.966;6.292;2022-11-20T11:44:58;15.30;;;10.40;;
44536;SDS011;30245;51.966;6.292;2022-11-20T11:50:13;17.47;;;11.10;;
44536;SDS011;30245;51.966;6.292;2022-11-20T11:55:28;15.37;;;10.67;;
44536;SDS011;30245;51.966;6.292;2022-11-20T11:58:18;17.63;;;11.43;;
44536;SDS011;30245;51.966;6.292;2022-11-20T12:00:47;17.70;;;12.97;;
44536;SDS011;30245;51.966;6.292;2022-11-20T12:03:21;17.90;;;10.93;;
44536;SDS011;30245;51.966;6.292;2022-11-20T12:06:06;13.67;;;10.33;;
44536;SDS011;30245;51.966;6.292;2022-11-20T12:08:50;15.10;;;9.30;;
44536;SDS011;30245;51.966;6.292;2022-11-20T12:11:53;14.03;;;9.37;;
44536;SDS011;30245;51.966;6.292;2022-11-20T12:14:37;14.47;;;9.97;;
44536;SDS011;30245;51.966;6.292;2022-11-20T12:17:04;15.03;;;9.87;;
44536;SDS011;30245;51.966;6.292;2022-11-20T12:19:30;15.30;;;8.60;;
44536;SDS011;30245;51.966;6.292;2022-11-20T12:22:03;14.50;;;8.13;;
44536;SDS011;30245;51.966;6.292;2022-11-20T12:30:07;14.40;;;9.35;;
44536;SDS011;30245;51.966;6.292;2022-11-20T12:49:47;12.07;;;8.27;;
44536;SDS011;30245;51.966;6.292;2022-11-20T12:57:50;12.03;;;7.80;;
44536;SDS011;30245;51.966;6.292;2022-11-20T13:00:24;12.17;;;8.97;;
44536;SDS011;30245;51.966;6.292;2022-11-20T13:08:08;13.10;;;9.90;;
44536;SDS011;30245;51.966;6.292;2022-11-20T13:10:47;12.70;;;8.60;;
44536;SDS011;30245;51.966;6.292;2022-11-20T13:18:45;15.50;;;9.97;;
44536;SDS011;30245;51.966;6.292;2022-11-20T13:21:17;16.70;;;11.70;;
44536;SDS011;30245;51.966;6.292;2022-11-20T13:23:45;15.47;;;11.03;;
44536;SDS011;30245;51.966;6.292;2022-11-20T13:26:15;15.70;;;10.37;;
44536;SDS011;30245;51.966;6.292;2022-11-20T13:28:47;12.73;;;9.10;;
44536;SDS011;30245;51.966;6.292;2022-11-20T13:33:55;13.33;;;9.60;;
44536;SDS011;30245;51.966;6.292;2022-11-20T13:36:26;12.27;;;9.43;;
44536;SDS011;30245;51.966;6.292;2022-11-20T13:38:54;16.93;;;10.77;;
44536;SDS011;30245;51.966;6.292;2022-11-20T13:41:33;13.63;;;9.20;;
44536;SDS011;30245;51.966;6.292;2022-11-20T13:46:46;13.80;;;10.63;;
44536;SDS011;30245;51.966;6.292;2022-11-20T13:51:51;14.53;;;9.50;;
44536;SDS011;30245;51.966;6.292;2022-11-20T13:54:47;16.50;;;10.97;;
44536;SDS011;30245;51.966;6.292;2022-11-20T14:00:15;15.60;;;11.07;;
44536;SDS011;30245;51.966;6.292;2022-11-20T14:03:01;14.07;;;9.37;;
44536;SDS011;30245;51.966;6.292;2022-11-20T14:05:30;18.10;;;12.27;;
44536;SDS011;30245;51.966;6.292;2022-11-20T14:08:02;17.93;;;10.90;;
44536;SDS011;30245;51.966;6.292;2022-11-20T14:10:29;17.45;;;11.60;;
44536;SDS011;30245;51.966;6.292;2022-11-20T14:12:55;20.23;;;11.77;;
44536;SDS011;30245;51.966;6.292;2022-11-20T14:17:57;18.23;;;12.53;;
44536;SDS011;30245;51.966;6.292;2022-11-20T14:20:27;19.17;;;12.83;;
44536;SDS011;30245;51.966;6.292;2022-11-20T14:22:56;17.47;;;10.80;;
44536;SDS011;30245;51.966;6.292;2022-11-20T14:25:25;21.23;;;15.03;;
44536;SDS011;30245;51.966;6.292;2022-11-20T14:27:59;18.90;;;12.53;;
44536;SDS011;30245;51.966;6.292;2022-11-20T14:30:27;20.20;;;12.53;;
44536;SDS011;30245;51.966;6.292;2022-11-20T14:33:10;23.20;;;13.23;;
44536;SDS011;30245;51.966;6.292;2022-11-20T14:35:40;23.83;;;14.27;;
44536;SDS011;30245;51.966;6.292;2022-11-20T14:38:14;23.73;;;14.93;;
44536;SDS011;30245;51.966;6.292;2022-11-20T14:40:43;19.23;;;12.50;;
44536;SDS011;30245;51.966;6.292;2022-11-20T14:43:19;18.90;;;13.00;;
44536;SDS011;30245;51.966;6.292;2022-11-20T14:45:58;20.53;;;12.83;;
44536;SDS011;30245;51.966;6.292;2022-11-20T14:48:37;17.27;;;10.27;;
44536;SDS011;30245;51.966;6.292;2022-11-20T14:51:25;18.87;;;11.43;;
44536;SDS011;30245;51.966;6.292;2022-11-20T14:54:14;17.03;;;10.73;;
44536;SDS011;30245;51.966;6.292;2022-11-20T14:56:41;18.60;;;12.67;;
44536;SDS011;30245;51.966;6.292;2022-11-20T14:59:08;19.97;;;12.77;;
44536;SDS011;30245;51.966;6.292;2022-11-20T15:01:34;18.10;;;11.10;;
44536;SDS011;30245;51.966;6.292;2022-11-20T15:06:31;18.17;;;12.03;;
44536;SDS011;30245;51.966;6.292;2022-11-20T15:08:57;17.90;;;11.30;;
44536;SDS011;30245;51.966;6.292;2022-11-20T15:11:30;19.63;;;12.50;;
44536;SDS011;30245;51.966;6.292;2022-11-20T15:14:04;18.07;;;13.13;;
44536;SDS011;30245;51.966;6.292;2022-11-20T15:16:31;21.50;;;12.07;;
44536;SDS011;30245;51.966;6.292;2022-11-20T15:18:58;21.80;;;12.20;;
44536;SDS011;30245;51.966;6.292;2022-11-20T15:21:24;19.17;;;13.47;;
44536;SDS011;30245;51.966;6.292;2022-11-20T15:23:50;20.53;;;13.30;;
44536;SDS011;30245;51.966;6.292;2022-11-20T15:26:25;23.73;;;14.47;;
44536;SDS011;30245;51.966;6.292;2022-11-20T15:28:53;22.67;;;12.03;;
44536;SDS011;30245;51.966;6.292;2022-11-20T15:31:20;19.47;;;13.67;;
44536;SDS011;30245;51.966;6.292;2022-11-20T15:33:47;20.20;;;13.80;;
44536;SDS011;30245;51.966;6.292;2022-11-20T15:36:13;18.93;;;11.87;;
44536;SDS011;30245;51.966;6.292;2022-11-20T15:38:39;19.47;;;12.63;;
44536;SDS011;30245;51.966;6.292;2022-11-20T15:41:04;21.23;;;12.77;;
44536;SDS011;30245;51.966;6.292;2022-11-20T15:43:30;19.97;;;13.70;;
44536;SDS011;30245;51.966;6.292;2022-11-20T15:45:59;21.03;;;11.60;;
44536;SDS011;30245;51.966;6.292;2022-11-20T15:48:38;26.03;;;13.77;;
44536;SDS011;30245;51.966;6.292;2022-11-20T15:53:49;19.10;;;12.50;;
44536;SDS011;30245;51.966;6.292;2022-11-20T15:56:15;21.67;;;12.63;;
44536;SDS011;30245;51.966;6.292;2022-11-20T15:58:41;20.23;;;13.53;;
44536;SDS011;30245;51.966;6.292;2022-11-20T16:01:13;19.13;;;11.97;;
44536;SDS011;30245;51.966;6.292;2022-11-20T16:03:41;21.80;;;13.83;;
44536;SDS011;30245;51.966;6.292;2022-11-20T16:06:07;21.67;;;12.53;;
44536;SDS011;30245;51.966;6.292;2022-11-20T16:08:32;23.33;;;13.53;;
44536;SDS011;30245;51.966;6.292;2022-11-20T16:10:58;23.03;;;15.47;;
44536;SDS011;30245;51.966;6.292;2022-11-20T16:13:24;20.63;;;13.07;;
44536;SDS011;30245;51.966;6.292;2022-11-20T16:16:17;26.40;;;14.20;;
44536;SDS011;30245;51.966;6.292;2022-11-20T16:18:46;21.03;;;13.37;;
44536;SDS011;30245;51.966;6.292;2022-11-20T16:21:11;25.47;;;11.70;;
44536;SDS011;30245;51.966;6.292;2022-11-20T16:23:38;23.63;;;13.37;;
44536;SDS011;30245;51.966;6.292;2022-11-20T16:26:11;20.00;;;12.73;;
44536;SDS011;30245;51.966;6.292;2022-11-20T16:28:39;25.47;;;13.63;;
44536;SDS011;30245;51.966;6.292;2022-11-20T16:31:09;22.47;;;12.73;;
44536;SDS011;30245;51.966;6.292;2022-11-20T16:33:37;19.90;;;13.63;;
44536;SDS011;30245;51.966;6.292;2022-11-20T16:36:10;22.73;;;13.23;;